Terminal Aerodrome Forecast
Issued by NWS Atlanta, GA

Home | Current Version | Previous Version | Text Only | Print | Product List | Glossary On
Versions: 1 2 3 4 5 6 7 8 9 10 11 12 13 14 15 16 17 18 19 20 21 22 23 24 25 26
000
FTUS42 KFFC 302218 AAC
TAFMCN
TAF AMD
KMCN 302218Z 3022/3118 07007KT P6SM SCT025 BKN100
     FM310600 04005KT 4SM BR SCT006 SCT100
     FM311000 03003KT 2SM BR BKN005
      TEMPO 3111/3113 1/2SM FG BKN002
     FM311400 03004KT 4SM BR BKN008
     FM311600 03006KT P6SM BKN015=

USA.gov is the U.S. government's official web portal to all federal, state and local government web resources and services.